sensor_id;sensor_type;location;lat;lon;timestamp;pressure;altitude;pressure_sealevel;temperature;humidity
52591;BME280;38483;42.620;25.394;2023-05-08T00:02:32;97318.88;;;13.80;64.27
52591;BME280;38483;42.620;25.394;2023-05-08T00:04:59;97319.03;;;13.77;64.63
52591;BME280;38483;42.620;25.394;2023-05-08T00:07:26;97323.91;;;13.83;64.70
52591;BME280;38483;42.620;25.394;2023-05-08T00:09:53;97317.13;;;13.96;64.31
52591;BME280;38483;42.620;25.394;2023-05-08T00:12:20;97318.53;;;14.02;64.29
52591;BME280;38483;42.620;25.394;2023-05-08T00:14:47;97315.91;;;13.70;64.69
52591;BME280;38483;42.620;25.394;2023-05-08T00:17:14;97312.44;;;13.39;66.23
52591;BME280;38483;42.620;25.394;2023-05-08T00:19:41;97302.78;;;13.41;66.81
52591;BME280;38483;42.620;25.394;2023-05-08T00:22:08;97303.88;;;13.37;66.42
52591;BME280;38483;42.620;25.394;2023-05-08T00:24:35;97300.47;;;13.19;67.70
52591;BME280;38483;42.620;25.394;2023-05-08T00:27:02;97310.19;;;13.16;67.53
52591;BME280;38483;42.620;25.394;2023-05-08T00:29:29;97308.22;;;13.21;67.79
52591;BME280;38483;42.620;25.394;2023-05-08T00:31:56;97298.88;;;13.17;68.24
52591;BME280;38483;42.620;25.394;2023-05-08T00:34:23;97298.59;;;13.05;68.01
52591;BME280;38483;42.620;25.394;2023-05-08T00:36:50;97308.53;;;13.15;67.55
52591;BME280;38483;42.620;25.394;2023-05-08T00:39:17;97305.72;;;13.00;66.73
52591;BME280;38483;42.620;25.394;2023-05-08T00:41:44;97297.97;;;12.83;67.45
52591;BME280;38483;42.620;25.394;2023-05-08T00:44:11;97289.09;;;12.70;67.87
52591;BME280;38483;42.620;25.394;2023-05-08T00:46:40;97301.78;;;12.93;67.52
52591;BME280;38483;42.620;25.394;2023-05-08T00:49:08;97296.09;;;13.02;66.02
52591;BME280;38483;42.620;25.394;2023-05-08T00:51:40;97296.19;;;13.18;65.71
52591;BME280;38483;42.620;25.394;2023-05-08T00:54:08;97293.28;;;13.24;65.29
52591;BME280;38483;42.620;25.394;2023-05-08T00:56:37;97291.00;;;13.18;65.41
52591;BME280;38483;42.620;25.394;2023-05-08T00:59:08;97275.09;;;13.40;64.65
52591;BME280;38483;42.620;25.394;2023-05-08T01:01:37;97288.81;;;13.59;64.37
52591;BME280;38483;42.620;25.394;2023-05-08T01:04:04;97287.00;;;13.44;64.84
52591;BME280;38483;42.620;25.394;2023-05-08T01:06:32;97285.28;;;13.60;64.16
52591;BME280;38483;42.620;25.394;2023-05-08T01:09:03;97279.34;;;13.58;64.13
52591;BME280;38483;42.620;25.394;2023-05-08T01:15:20;97297.53;;;13.73;63.47
52591;BME280;38483;42.620;25.394;2023-05-08T01:34:20;97306.44;;;13.54;64.28
52591;BME280;38483;42.620;25.394;2023-05-08T01:39:25;97294.25;;;13.54;63.87
52591;BME280;38483;42.620;25.394;2023-05-08T01:41:59;97299.69;;;13.50;63.59
52591;BME280;38483;42.620;25.394;2023-05-08T01:44:34;97286.69;;;13.17;64.04
52591;BME280;38483;42.620;25.394;2023-05-08T01:47:06;97302.69;;;13.42;63.80
52591;BME280;38483;42.620;25.394;2023-05-08T01:50:02;97296.66;;;13.42;63.86
52591;BME280;38483;42.620;25.394;2023-05-08T01:52:42;97278.56;;;13.23;64.54
52591;BME280;38483;42.620;25.394;2023-05-08T01:55:25;97307.00;;;13.11;65.85
52591;BME280;38483;42.620;25.394;2023-05-08T01:57:56;97297.34;;;12.95;66.55
52591;BME280;38483;42.620;25.394;2023-05-08T02:00:25;97300.78;;;12.96;66.30
52591;BME280;38483;42.620;25.394;2023-05-08T02:02:54;97288.66;;;12.79;66.69
52591;BME280;38483;42.620;25.394;2023-05-08T02:05:23;97311.09;;;12.63;66.94
52591;BME280;38483;42.620;25.394;2023-05-08T02:07:53;97281.09;;;12.22;67.99
52591;BME280;38483;42.620;25.394;2023-05-08T02:10:22;97297.38;;;11.90;69.28
52591;BME280;38483;42.620;25.394;2023-05-08T02:12:51;97265.25;;;11.55;70.04
52591;BME280;38483;42.620;25.394;2023-05-08T02:15:20;97296.78;;;11.66;71.30
52591;BME280;38483;42.620;25.394;2023-05-08T02:17:48;97300.91;;;11.89;70.20
52591;BME280;38483;42.620;25.394;2023-05-08T02:20:17;97294.31;;;11.82;70.16
52591;BME280;38483;42.620;25.394;2023-05-08T02:22:49;97297.66;;;11.46;71.25
52591;BME280;38483;42.620;25.394;2023-05-08T02:25:17;97284.06;;;11.03;72.59
52591;BME280;38483;42.620;25.394;2023-05-08T02:27:47;97293.53;;;11.04;73.38
52591;BME280;38483;42.620;25.394;2023-05-08T02:30:16;97288.69;;;10.96;73.66
52591;BME280;38483;42.620;25.394;2023-05-08T02:32:46;97284.50;;;10.92;74.48
52591;BME280;38483;42.620;25.394;2023-05-08T02:35:16;97289.97;;;10.86;75.11
52591;BME280;38483;42.620;25.394;2023-05-08T02:37:51;97284.94;;;10.83;75.63
52591;BME280;38483;42.620;25.394;2023-05-08T02:40:20;97289.06;;;10.87;76.19
52591;BME280;38483;42.620;25.394;2023-05-08T02:42:48;97290.81;;;10.87;76.13
52591;BME280;38483;42.620;25.394;2023-05-08T02:45:15;97280.00;;;10.77;76.81
52591;BME280;38483;42.620;25.394;2023-05-08T02:50:20;97279.66;;;11.05;75.24
52591;BME280;38483;42.620;25.394;2023-05-08T02:52:53;97278.44;;;11.32;73.42
52591;BME280;38483;42.620;25.394;2023-05-08T02:55:39;97290.78;;;11.45;72.64
52591;BME280;38483;42.620;25.394;2023-05-08T02:58:17;97274.09;;;11.51;72.20
52591;BME280;38483;42.620;25.394;2023-05-08T03:00:55;97271.03;;;11.62;71.77
52591;BME280;38483;42.620;25.394;2023-05-08T03:03:36;97230.09;;;11.50;71.62
52591;BME280;38483;42.620;25.394;2023-05-08T03:06:10;97268.06;;;11.88;70.29
52591;BME280;38483;42.620;25.394;2023-05-08T03:08:38;97263.53;;;11.93;70.20
52591;BME280;38483;42.620;25.394;2023-05-08T03:11:14;97237.81;;;11.70;70.06
52591;BME280;38483;42.620;25.394;2023-05-08T03:13:44;97259.53;;;11.67;70.94
52591;BME280;38483;42.620;25.394;2023-05-08T03:16:22;97267.19;;;11.89;70.23
52591;BME280;38483;42.620;25.394;2023-05-08T03:18:54;97274.38;;;12.01;69.69
52591;BME280;38483;42.620;25.394;2023-05-08T03:21:25;97278.81;;;12.16;69.16
52591;BME280;38483;42.620;25.394;2023-05-08T03:23:56;97265.94;;;11.96;69.06
52591;BME280;38483;42.620;25.394;2023-05-08T03:26:24;97277.50;;;11.72;70.22
52591;BME280;38483;42.620;25.394;2023-05-08T03:28:52;97285.38;;;11.50;71.80
52591;BME280;38483;42.620;25.394;2023-05-08T03:31:24;97278.94;;;11.59;71.35
52591;BME280;38483;42.620;25.394;2023-05-08T03:33:53;97285.13;;;11.75;71.05
52591;BME280;38483;42.620;25.394;2023-05-08T03:36:22;97289.75;;;11.87;70.84
52591;BME280;38483;42.620;25.394;2023-05-08T03:38:51;97275.75;;;12.08;69.35
52591;BME280;38483;42.620;25.394;2023-05-08T03:41:18;97284.53;;;12.05;69.62
52591;BME280;38483;42.620;25.394;2023-05-08T03:43:47;97291.53;;;12.39;68.54
52591;BME280;38483;42.620;25.394;2023-05-08T03:46:15;97283.00;;;12.54;68.23
52591;BME280;38483;42.620;25.394;2023-05-08T03:48:43;97273.06;;;12.62;67.43
52591;BME280;38483;42.620;25.394;2023-05-08T03:51:12;97290.16;;;12.49;67.78
52591;BME280;38483;42.620;25.394;2023-05-08T03:53:41;97292.50;;;12.37;68.52
52591;BME280;38483;42.620;25.394;2023-05-08T03:56:09;97297.28;;;12.63;68.65
52591;BME280;38483;42.620;25.394;2023-05-08T04:01:13;97299.50;;;12.36;68.86
52591;BME280;38483;42.620;25.394;2023-05-08T04:06:55;97301.28;;;13.02;67.52
52591;BME280;38483;42.620;25.394;2023-05-08T04:12:19;97305.22;;;13.76;64.65
52591;BME280;38483;42.620;25.394;2023-05-08T04:14:52;97302.75;;;13.89;64.43
52591;BME280;38483;42.620;25.394;2023-05-08T04:20:02;97307.59;;;14.57;62.80
52591;BME280;38483;42.620;25.394;2023-05-08T04:22:32;97296.31;;;14.57;62.41
52591;BME280;38483;42.620;25.394;2023-05-08T04:25:02;97282.25;;;14.14;63.91
52591;BME280;38483;42.620;25.394;2023-05-08T04:27:31;97286.59;;;14.14;64.45
52591;BME280;38483;42.620;25.394;2023-05-08T04:29:59;97284.34;;;14.08;64.74
52591;BME280;38483;42.620;25.394;2023-05-08T04:32:32;97294.38;;;13.84;64.64
52591;BME280;38483;42.620;25.394;2023-05-08T04:35:02;97283.06;;;13.52;66.26
52591;BME280;38483;42.620;25.394;2023-05-08T04:37:30;97294.00;;;13.59;67.04
52591;BME280;38483;42.620;25.394;2023-05-08T04:40:00;97279.31;;;13.89;65.49
52591;BME280;38483;42.620;25.394;2023-05-08T04:42:30;97288.47;;;14.12;65.17
52591;BME280;38483;42.620;25.394;2023-05-08T04:44:59;97309.66;;;14.37;64.58
52591;BME280;38483;42.620;25.394;2023-05-08T04:47:27;97290.31;;;14.71;64.66
52591;BME280;38483;42.620;25.394;2023-05-08T04:49:54;97295.97;;;15.07;62.63
52591;BME280;38483;42.620;25.394;2023-05-08T04:52:22;97258.25;;;15.12;61.23
52591;BME280;38483;42.620;25.394;2023-05-08T04:54:48;97275.44;;;15.44;59.33
52591;BME280;38483;42.620;25.394;2023-05-08T04:57:16;97280.56;;;15.46;59.45
52591;BME280;38483;42.620;25.394;2023-05-08T04:59:42;97280.81;;;15.70;58.69
52591;BME280;38483;42.620;25.394;2023-05-08T05:02:13;97274.59;;;15.72;58.34
52591;BME280;38483;42.620;25.394;2023-05-08T05:04:42;97281.06;;;15.79;57.81
52591;BME280;38483;42.620;25.394;2023-05-08T05:07:09;97287.03;;;15.81;58.62
52591;BME280;38483;42.620;25.394;2023-05-08T05:09:37;97284.47;;;15.53;58.65
52591;BME280;38483;42.620;25.394;2023-05-08T05:12:06;97278.81;;;15.87;58.08
52591;BME280;38483;42.620;25.394;2023-05-08T05:14:34;97279.94;;;15.83;57.75
52591;BME280;38483;42.620;25.394;2023-05-08T05:17:01;97274.16;;;15.92;58.25
52591;BME280;38483;42.620;25.394;2023-05-08T05:19:29;97275.88;;;16.33;57.28
52591;BME280;38483;42.620;25.394;2023-05-08T05:21:56;97271.44;;;16.47;56.24
52591;BME280;38483;42.620;25.394;2023-05-08T05:24:23;97280.03;;;16.88;55.92
52591;BME280;38483;42.620;25.394;2023-05-08T05:26:50;97278.38;;;16.87;55.55
52591;BME280;38483;42.620;25.394;2023-05-08T05:29:18;97272.75;;;17.06;55.31
52591;BME280;38483;42.620;25.394;2023-05-08T05:31:44;97280.88;;;16.89;55.14
52591;BME280;38483;42.620;25.394;2023-05-08T05:34:14;97278.88;;;16.80;56.39
52591;BME280;38483;42.620;25.394;2023-05-08T05:36:41;97270.84;;;17.08;55.82
52591;BME280;38483;42.620;25.394;2023-05-08T05:39:08;97281.28;;;17.46;54.65
52591;BME280;38483;42.620;25.394;2023-05-08T05:41:38;97272.84;;;17.55;52.79
52591;BME280;38483;42.620;25.394;2023-05-08T05:44:14;97281.91;;;17.74;53.18
52591;BME280;38483;42.620;25.394;2023-05-08T05:46:43;97272.94;;;17.66;51.80
52591;BME280;38483;42.620;25.394;2023-05-08T05:49:11;97267.59;;;18.04;51.31
52591;BME280;38483;42.620;25.394;2023-05-08T05:51:40;97275.19;;;18.43;51.15
52591;BME280;38483;42.620;25.394;2023-05-08T05:54:07;97268.72;;;18.59;48.89
52591;BME280;38483;42.620;25.394;2023-05-08T05:56:34;97268.41;;;18.64;49.08
52591;BME280;38483;42.620;25.394;2023-05-08T05:59:02;97259.69;;;18.63;49.82
52591;BME280;38483;42.620;25.394;2023-05-08T06:01:29;97271.94;;;18.87;48.76
52591;BME280;38483;42.620;25.394;2023-05-08T06:03:58;97264.34;;;19.06;48.73
52591;BME280;38483;42.620;25.394;2023-05-08T06:06:26;97273.13;;;19.39;47.83
52591;BME280;38483;42.620;25.394;2023-05-08T06:08:53;97274.69;;;19.75;46.68
52591;BME280;38483;42.620;25.394;2023-05-08T06:11:22;97231.06;;;19.73;46.10
52591;BME280;38483;42.620;25.394;2023-05-08T06:13:52;97242.22;;;19.43;47.39
52591;BME280;38483;42.620;25.394;2023-05-08T06:16:21;97250.91;;;19.55;47.58
52591;BME280;38483;42.620;25.394;2023-05-08T06:18:50;97257.81;;;20.00;46.73
52591;BME280;38483;42.620;25.394;2023-05-08T06:21:16;97246.78;;;20.17;46.69
52591;BME280;38483;42.620;25.394;2023-05-08T06:23:43;97241.22;;;19.88;45.86
52591;BME280;38483;42.620;25.394;2023-05-08T06:26:11;97253.03;;;19.94;45.59
52591;BME280;38483;42.620;25.394;2023-05-08T06:28:38;97254.44;;;20.09;44.45
52591;BME280;38483;42.620;25.394;2023-05-08T06:31:07;97250.31;;;19.73;44.14
52591;BME280;38483;42.620;25.394;2023-05-08T06:33:35;97238.47;;;19.79;45.51
52591;BME280;38483;42.620;25.394;2023-05-08T06:36:03;97255.25;;;20.09;43.05
52591;BME280;38483;42.620;25.394;2023-05-08T06:38:31;97255.91;;;19.24;43.71
52591;BME280;38483;42.620;25.394;2023-05-08T06:40:58;97260.38;;;18.89;45.04
52591;BME280;38483;42.620;25.394;2023-05-08T06:43:25;97248.00;;;18.67;45.06
52591;BME280;38483;42.620;25.394;2023-05-08T06:45:55;97246.31;;;19.01;45.96
52591;BME280;38483;42.620;25.394;2023-05-08T06:48:22;97238.75;;;19.54;43.64
52591;BME280;38483;42.620;25.394;2023-05-08T06:50:50;97241.59;;;19.84;43.48
52591;BME280;38483;42.620;25.394;2023-05-08T06:53:17;97243.22;;;20.07;42.07
52591;BME280;38483;42.620;25.394;2023-05-08T06:55:44;97232.34;;;20.00;42.11
52591;BME280;38483;42.620;25.394;2023-05-08T06:58:11;97234.94;;;20.11;43.25
52591;BME280;38483;42.620;25.394;2023-05-08T07:00:38;97232.84;;;20.37;43.70
52591;BME280;38483;42.620;25.394;2023-05-08T07:03:05;97225.84;;;20.15;43.02
52591;BME280;38483;42.620;25.394;2023-05-08T07:05:32;97226.91;;;20.24;42.83
52591;BME280;38483;42.620;25.394;2023-05-08T07:07:59;97236.81;;;20.63;42.43
52591;BME280;38483;42.620;25.394;2023-05-08T07:10:27;97234.50;;;20.70;41.66
52591;BME280;38483;42.620;25.394;2023-05-08T07:12:54;97232.38;;;20.64;41.88
52591;BME280;38483;42.620;25.394;2023-05-08T07:15:21;97223.53;;;20.65;41.92
52591;BME280;38483;42.620;25.394;2023-05-08T07:17:53;97223.75;;;20.73;41.76
52591;BME280;38483;42.620;25.394;2023-05-08T07:20:20;97226.66;;;20.59;41.25
52591;BME280;38483;42.620;25.394;2023-05-08T07:22:47;97227.06;;;20.54;42.35
52591;BME280;38483;42.620;25.394;2023-05-08T07:25:15;97213.97;;;20.84;42.09
52591;BME280;38483;42.620;25.394;2023-05-08T07:27:42;97225.06;;;20.88;41.62
52591;BME280;38483;42.620;25.394;2023-05-08T07:30:09;97223.31;;;20.57;42.20
52591;BME280;38483;42.620;25.394;2023-05-08T07:32:37;97211.28;;;20.54;42.09
52591;BME280;38483;42.620;25.394;2023-05-08T07:35:07;97222.03;;;20.51;41.93
52591;BME280;38483;42.620;25.394;2023-05-08T07:37:38;97209.25;;;20.15;42.57
52591;BME280;38483;42.620;25.394;2023-05-08T07:40:05;97202.88;;;20.17;42.85
52591;BME280;38483;42.620;25.394;2023-05-08T07:42:42;97210.69;;;20.71;42.41
52591;BME280;38483;42.620;25.394;2023-05-08T07:45:11;97220.25;;;20.93;41.49
52591;BME280;38483;42.620;25.394;2023-05-08T07:47:48;97215.50;;;20.66;41.83
52591;BME280;38483;42.620;25.394;2023-05-08T07:50:16;97199.16;;;20.63;41.64
52591;BME280;38483;42.620;25.394;2023-05-08T07:52:43;97119.16;;;20.34;42.32
52591;BME280;38483;42.620;25.394;2023-05-08T07:55:12;97199.59;;;21.39;42.74
52591;BME280;38483;42.620;25.394;2023-05-08T07:57:41;97202.75;;;21.63;40.86
52591;BME280;38483;42.620;25.394;2023-05-08T08:00:10;97214.84;;;21.75;40.01
52591;BME280;38483;42.620;25.394;2023-05-08T08:02:41;97211.75;;;22.01;40.49
52591;BME280;38483;42.620;25.394;2023-05-08T08:05:08;97207.81;;;21.85;39.68
52591;BME280;38483;42.620;25.394;2023-05-08T08:07:36;97196.81;;;21.80;40.58
52591;BME280;38483;42.620;25.394;2023-05-08T08:10:03;97197.94;;;21.78;40.04
52591;BME280;38483;42.620;25.394;2023-05-08T08:12:31;97200.69;;;21.76;40.46
52591;BME280;38483;42.620;25.394;2023-05-08T08:14:58;97195.28;;;21.78;40.91
52591;BME280;38483;42.620;25.394;2023-05-08T08:17:25;97189.25;;;22.06;39.16
52591;BME280;38483;42.620;25.394;2023-05-08T08:19:55;97202.59;;;22.14;39.25
52591;BME280;38483;42.620;25.394;2023-05-08T08:22:23;97187.28;;;21.89;40.16
52591;BME280;38483;42.620;25.394;2023-05-08T08:24:50;97189.53;;;22.03;39.88
52591;BME280;38483;42.620;25.394;2023-05-08T08:27:21;97181.50;;;22.05;40.86
52591;BME280;38483;42.620;25.394;2023-05-08T08:29:49;97188.31;;;22.17;41.12
52591;BME280;38483;42.620;25.394;2023-05-08T08:32:24;97188.59;;;22.33;40.13
52591;BME280;38483;42.620;25.394;2023-05-08T08:34:51;97190.69;;;22.29;40.31
52591;BME280;38483;42.620;25.394;2023-05-08T08:37:18;97187.34;;;22.37;40.18
52591;BME280;38483;42.620;25.394;2023-05-08T08:39:45;97189.28;;;22.25;40.86
52591;BME280;38483;42.620;25.394;2023-05-08T08:42:13;97183.03;;;22.26;40.21
52591;BME280;38483;42.620;25.394;2023-05-08T08:44:41;97183.88;;;22.27;39.35
52591;BME280;38483;42.620;25.394;2023-05-08T08:47:11;97177.91;;;22.25;39.93
52591;BME280;38483;42.620;25.394;2023-05-08T08:49:47;97176.56;;;21.81;40.93
52591;BME280;38483;42.620;25.394;2023-05-08T08:52:21;97165.94;;;21.92;40.79
52591;BME280;38483;42.620;25.394;2023-05-08T08:54:54;97175.34;;;21.85;40.40
52591;BME280;38483;42.620;25.394;2023-05-08T08:57:23;97172.03;;;21.53;41.38
52591;BME280;38483;42.620;25.394;2023-05-08T08:59:52;97165.47;;;21.38;41.88
52591;BME280;38483;42.620;25.394;2023-05-08T09:02:21;97167.19;;;21.58;41.42
52591;BME280;38483;42.620;25.394;2023-05-08T09:04:49;97163.38;;;21.41;41.83
52591;BME280;38483;42.620;25.394;2023-05-08T09:07:17;97165.09;;;21.82;41.30
52591;BME280;38483;42.620;25.394;2023-05-08T09:09:44;97159.69;;;22.03;40.91
52591;BME280;38483;42.620;25.394;2023-05-08T09:12:12;97162.47;;;22.20;40.35
52591;BME280;38483;42.620;25.394;2023-05-08T09:14:40;97163.44;;;22.10;40.28
52591;BME280;38483;42.620;25.394;2023-05-08T09:17:08;97160.25;;;22.06;40.54
52591;BME280;38483;42.620;25.394;2023-05-08T09:19:35;97160.25;;;22.06;40.73
52591;BME280;38483;42.620;25.394;2023-05-08T09:22:03;97153.19;;;22.35;40.63
52591;BME280;38483;42.620;25.394;2023-05-08T09:24:58;97149.53;;;22.08;40.65
52591;BME280;38483;42.620;25.394;2023-05-08T09:27:27;97145.41;;;22.34;40.81
52591;BME280;38483;42.620;25.394;2023-05-08T09:30:05;97129.53;;;22.05;41.25
52591;BME280;38483;42.620;25.394;2023-05-08T09:32:35;97136.50;;;22.06;41.07
52591;BME280;38483;42.620;25.394;2023-05-08T09:35:03;97134.28;;;22.30;41.12
52591;BME280;38483;42.620;25.394;2023-05-08T09:37:32;97119.22;;;22.79;40.25
52591;BME280;38483;42.620;25.394;2023-05-08T09:40:12;97122.34;;;23.01;40.85
52591;BME280;38483;42.620;25.394;2023-05-08T09:42:40;97108.88;;;22.95;39.71
52591;BME280;38483;42.620;25.394;2023-05-08T09:45:08;97109.34;;;23.17;39.25
52591;BME280;38483;42.620;25.394;2023-05-08T09:47:36;97110.72;;;23.21;39.35
52591;BME280;38483;42.620;25.394;2023-05-08T09:50:07;97109.09;;;23.11;39.75
52591;BME280;38483;42.620;25.394;2023-05-08T09:52:36;97102.44;;;23.07;40.30
52591;BME280;38483;42.620;25.394;2023-05-08T09:55:07;97105.97;;;23.34;39.38
52591;BME280;38483;42.620;25.394;2023-05-08T09:57:38;97095.56;;;22.87;40.13
52591;BME280;38483;42.620;25.394;2023-05-08T10:00:10;97088.28;;;22.98;40.61
52591;BME280;38483;42.620;25.394;2023-05-08T10:02:40;97085.84;;;23.14;40.10
52591;BME280;38483;42.620;25.394;2023-05-08T10:05:25;97093.91;;;23.22;39.73
52591;BME280;38483;42.620;25.394;2023-05-08T10:07:53;97079.13;;;23.57;39.34
52591;BME280;38483;42.620;25.394;2023-05-08T10:10:28;97080.09;;;23.28;39.42
52591;BME280;38483;42.620;25.394;2023-05-08T10:12:57;97075.41;;;23.22;40.16
52591;BME280;38483;42.620;25.394;2023-05-08T10:15:28;97077.22;;;23.12;39.47
52591;BME280;38483;42.620;25.394;2023-05-08T10:18:03;97066.75;;;22.56;40.86
52591;BME280;38483;42.620;25.394;2023-05-08T10:20:33;97068.56;;;22.37;41.75
52591;BME280;38483;42.620;25.394;2023-05-08T10:23:02;97068.69;;;22.54;40.96
52591;BME280;38483;42.620;25.394;2023-05-08T10:25:33;97066.34;;;22.42;41.29
52591;BME280;38483;42.620;25.394;2023-05-08T10:28:22;97063.00;;;22.96;40.77
52591;BME280;38483;42.620;25.394;2023-05-08T10:30:50;97065.59;;;23.05;40.01
52591;BME280;38483;42.620;25.394;2023-05-08T10:33:24;97067.22;;;23.16;39.77
52591;BME280;38483;42.620;25.394;2023-05-08T10:35:57;97059.88;;;23.10;39.86
52591;BME280;38483;42.620;25.394;2023-05-08T10:38:25;97054.47;;;23.29;39.03
52591;BME280;38483;42.620;25.394;2023-05-08T10:40:53;97040.91;;;23.24;39.78
52591;BME280;38483;42.620;25.394;2023-05-08T10:43:24;97049.72;;;23.42;39.79
52591;BME280;38483;42.620;25.394;2023-05-08T10:45:55;97053.81;;;23.54;39.27
52591;BME280;38483;42.620;25.394;2023-05-08T10:48:47;97057.53;;;23.79;39.34
52591;BME280;38483;42.620;25.394;2023-05-08T10:51:21;97053.81;;;24.24;38.87
52591;BME280;38483;42.620;25.394;2023-05-08T10:53:59;97049.94;;;24.01;38.39
52591;BME280;38483;42.620;25.394;2023-05-08T10:56:28;97056.34;;;24.08;38.62
52591;BME280;38483;42.620;25.394;2023-05-08T10:58:56;97050.03;;;24.09;38.96
52591;BME280;38483;42.620;25.394;2023-05-08T11:01:24;97052.91;;;23.98;39.00
52591;BME280;38483;42.620;25.394;2023-05-08T11:03:52;97049.38;;;23.90;39.38
52591;BME280;38483;42.620;25.394;2023-05-08T11:06:44;97051.34;;;23.88;39.87
52591;BME280;38483;42.620;25.394;2023-05-08T11:09:26;97040.06;;;23.68;39.73
52591;BME280;38483;42.620;25.394;2023-05-08T11:12:06;97049.00;;;23.67;39.62
52591;BME280;38483;42.620;25.394;2023-05-08T11:14:36;97048.94;;;23.32;40.30
52591;BME280;38483;42.620;25.394;2023-05-08T11:17:04;97042.63;;;23.42;39.91
52591;BME280;38483;42.620;25.394;2023-05-08T11:19:31;97032.78;;;23.35;40.24
52591;BME280;38483;42.620;25.394;2023-05-08T11:24:57;97042.16;;;22.93;40.75
52591;BME280;38483;42.620;25.394;2023-05-08T11:27:34;97036.19;;;23.18;40.33
52591;BME280;38483;42.620;25.394;2023-05-08T11:35:54;97036.28;;;23.26;39.91
52591;BME280;38483;42.620;25.394;2023-05-08T11:38:34;97034.09;;;23.21;39.82
52591;BME280;38483;42.620;25.394;2023-05-08T11:41:10;97032.19;;;23.14;41.21
52591;BME280;38483;42.620;25.394;2023-05-08T11:47:11;97027.88;;;23.13;40.78
52591;BME280;38483;42.620;25.394;2023-05-08T11:50:31;97028.31;;;23.08;40.81
52591;BME280;38483;42.620;25.394;2023-05-08T11:53:33;97018.97;;;23.14;43.89
52591;BME280;38483;42.620;25.394;2023-05-08T11:56:02;97025.03;;;23.24;44.43
52591;BME280;38483;42.620;25.394;2023-05-08T11:58:30;97024.50;;;23.20;44.49
52591;BME280;38483;42.620;25.394;2023-05-08T12:00:57;97033.16;;;22.86;49.15
52591;BME280;38483;42.620;25.394;2023-05-08T12:03:24;97042.28;;;22.54;51.71
52591;BME280;38483;42.620;25.394;2023-05-08T12:05:56;96990.75;;;21.85;53.39
52591;BME280;38483;42.620;25.394;2023-05-08T12:08:24;97024.91;;;21.96;54.40
52591;BME280;38483;42.620;25.394;2023-05-08T12:10:53;97028.19;;;21.79;55.40
52591;BME280;38483;42.620;25.394;2023-05-08T12:13:22;97035.69;;;21.55;56.28
52591;BME280;38483;42.620;25.394;2023-05-08T12:15:54;97032.06;;;21.46;56.81
52591;BME280;38483;42.620;25.394;2023-05-08T12:18:26;97032.88;;;21.18;57.49
52591;BME280;38483;42.620;25.394;2023-05-08T12:20:58;97043.78;;;21.04;58.81
52591;BME280;38483;42.620;25.394;2023-05-08T12:23:26;97043.53;;;20.86;62.35
52591;BME280;38483;42.620;25.394;2023-05-08T12:25:59;97050.94;;;20.62;63.62
52591;BME280;38483;42.620;25.394;2023-05-08T12:28:27;97048.25;;;20.32;65.29
52591;BME280;38483;42.620;25.394;2023-05-08T12:30:55;97060.56;;;20.11;66.96
52591;BME280;38483;42.620;25.394;2023-05-08T12:33:22;97081.06;;;19.96;67.72
52591;BME280;38483;42.620;25.394;2023-05-08T12:35:50;97075.19;;;19.72;67.84
52591;BME280;38483;42.620;25.394;2023-05-08T12:38:25;97087.25;;;19.43;68.86
52591;BME280;38483;42.620;25.394;2023-05-08T12:40:52;97083.06;;;19.40;68.96
52591;BME280;38483;42.620;25.394;2023-05-08T12:43:32;97087.34;;;19.41;68.40
52591;BME280;38483;42.620;25.394;2023-05-08T12:46:01;97083.78;;;19.20;68.75
52591;BME280;38483;42.620;25.394;2023-05-08T12:48:30;97094.28;;;19.20;69.49
52591;BME280;38483;42.620;25.394;2023-05-08T12:51:02;97100.97;;;19.13;69.58
52591;BME280;38483;42.620;25.394;2023-05-08T12:53:31;97098.00;;;18.96;71.49
52591;BME280;38483;42.620;25.394;2023-05-08T12:56:02;97095.25;;;18.86;72.23
52591;BME280;38483;42.620;25.394;2023-05-08T12:58:32;97099.28;;;18.46;75.94
52591;BME280;38483;42.620;25.394;2023-05-08T13:01:05;97101.78;;;18.13;78.10
52591;BME280;38483;42.620;25.394;2023-05-08T13:03:33;97105.63;;;17.85;78.27
52591;BME280;38483;42.620;25.394;2023-05-08T13:06:00;97106.69;;;17.59;80.80
52591;BME280;38483;42.620;25.394;2023-05-08T13:08:36;97094.69;;;17.31;82.58
52591;BME280;38483;42.620;25.394;2023-05-08T13:11:04;97098.16;;;17.08;84.21
52591;BME280;38483;42.620;25.394;2023-05-08T13:13:33;97112.81;;;16.98;83.84
52591;BME280;38483;42.620;25.394;2023-05-08T13:16:02;97106.09;;;16.94;85.03
52591;BME280;38483;42.620;25.394;2023-05-08T13:18:30;97121.63;;;16.72;85.65
52591;BME280;38483;42.620;25.394;2023-05-08T13:20:58;97104.69;;;16.65;86.13
52591;BME280;38483;42.620;25.394;2023-05-08T13:23:25;97117.75;;;16.77;87.36
52591;BME280;38483;42.620;25.394;2023-05-08T13:25:54;97106.34;;;16.66;86.47
52591;BME280;38483;42.620;25.394;2023-05-08T13:28:21;97102.69;;;16.81;85.67
52591;BME280;38483;42.620;25.394;2023-05-08T13:30:48;97114.19;;;16.78;84.94
52591;BME280;38483;42.620;25.394;2023-05-08T13:33:15;97078.84;;;16.73;86.64
52591;BME280;38483;42.620;25.394;2023-05-08T13:35:42;97104.88;;;16.74;86.57
52591;BME280;38483;42.620;25.394;2023-05-08T13:38:09;97098.72;;;16.63;85.38
52591;BME280;38483;42.620;25.394;2023-05-08T13:40:37;97100.28;;;16.65;85.03
52591;BME280;38483;42.620;25.394;2023-05-08T13:43:04;97083.97;;;16.62;82.17
52591;BME280;38483;42.620;25.394;2023-05-08T13:45:31;97086.25;;;16.79;80.78
52591;BME280;38483;42.620;25.394;2023-05-08T13:47:59;97080.72;;;16.83;81.37
52591;BME280;38483;42.620;25.394;2023-05-08T13:50:26;97087.38;;;17.00;80.29
52591;BME280;38483;42.620;25.394;2023-05-08T13:52:53;97086.44;;;17.01;80.08
52591;BME280;38483;42.620;25.394;2023-05-08T13:55:21;97074.66;;;17.19;78.44